Nearby METAR (Airport) Reports

 

KPRN - Greenville, Alabama, USA
Distance from station: WNW 17mi, 28km
Updated: Mon, 26-Feb-2024 9:58am CST
Clear
Clear
 Wind from SSW
Wind: SSW 6 mph , 9 km/h, Gust: 17 mph , 28 km/h
Temperature: 64°F , 18°C
Dew Point: 43°F , 6°C
Humidity: 46%
Barometer: 30.16 inHg , 1021.3 hPa
Clouds: Clear
Visibility: 10 miles , 16 km
2024/02/26 15:58 KPRN 261558Z AUTO 21005G15KT 10SM CLR 18/06 A3016 RMK AO2 SLP160 T01830056
KTOI - Troy, Alabama, USA
Distance from station: ENE 21mi, 34km
Updated: Mon, 26-Feb-2024 9:53am CST
Clear
Clear
 Wind from S
Wind: S 8 mph , 13 km/h
Temperature: 72°F , 22°C
Dew Point: 43°F , 6°C
Humidity: 36%
Barometer: 30.18 inHg , 1022 hPa
Clouds: Clear
Visibility: 10 miles , 16 km
2024/02/26 15:53 KTOI 261553Z AUTO 17007KT 10SM CLR 22/06 A3018 RMK AO2 SLP217 T02170061
K79J - Andalusia/Opp Ar, Alabama, USA
Distance from station: S 29mi, 47km
Updated: Mon, 26-Feb-2024 9:56am CST
Clear
Clear
 Wind from varies
Wind: varies 5 mph , 7 km/h
Temperature: 66°F , 19°C
Dew Point: 45°F , 7°C
Humidity: 46%
Barometer: 30.17 inHg , 1021.7 hPa
Clouds: Clear
Visibility: 10 miles , 16 km
2024/02/26 15:56 K79J 261556Z AUTO VRB04KT 10SM CLR 19/07 A3017 RMK AO2 SLP213 T01940067 TSNO $
 
KMGM - Montgomery, Alabama, USA
Distance from station: N 39mi, 63km
Updated: Mon, 26-Feb-2024 9:53am CST
Clear
Clear
 Wind from S
Wind: S 9 mph , 15 km/h
Temperature: 68°F , 20°C
Dew Point: 43°F , 6°C
Humidity: 40%
Barometer: 30.16 inHg , 1021.3 hPa
Clouds: Clear
Visibility: 10 miles , 16 km
2024/02/26 15:53 KMGM 261553Z 19008KT 10SM CLR 20/06 A3016 RMK AO2 SLP212 T02000061 $
KMXF - Maxwell Afb/Mgm, Alabama, USA
Distance from station: N 44mi, 70km
Updated: Mon, 26-Feb-2024 9:55am CST
Clear
Clear
 Wind from S
Wind: S 9 mph , 15 km/h
Temperature: 68°F , 20°C
Dew Point: 39°F , 4°C
Humidity: 35%
Barometer: 30.14 inHg , 1020.7 hPa
Clouds: Clear
Visibility: 10 miles , 16 km
2024/02/26 15:55 KMXF 261555Z AUTO 19008KT 10SM CLR 20/04 A3014 RMK AO2 SLP209 T01950044
KLOR - Lowe Ahp/Ft. Ruc, Alabama, USA
Distance from station: SE 44mi, 71km
Updated: Mon, 26-Feb-2024 9:55am CST
Clear
Clear
 Wind from S
Wind: S 5 mph , 7 km/h
Temperature: 68°F , 20°C
Dew Point: 43°F , 6°C
Humidity: 40%
Barometer: 30.17 inHg , 1021.7 hPa
Clouds: Clear
Visibility: 10 miles , 16 km
2024/02/26 15:55 KLOR 261555Z AUTO 18004KT 10SM CLR 20/06 A3017 RMK AO2 SLP200 T02020058
 
KGZH - Evergreen, Alabama, USA
Distance from station: WSW 46mi, 75km
Updated: Mon, 26-Feb-2024 9:53am CST
Clear
Clear
 Wind from S
Wind: S 12 mph , 19 km/h
Temperature: 68°F , 20°C
Dew Point: 46°F , 8°C
Humidity: 46%
Barometer: 30.17 inHg , 1021.7 hPa
Clouds: Clear
Visibility: 10 miles , 16 km
2024/02/26 15:53 KGZH 261553Z AUTO 18010KT 10SM CLR 20/08 A3017 RMK AO2 SLP213 T02000078
K0J4 - Florala Muni, Alabama, USA
Distance from station: S 47mi, 76km
Updated: Mon, 26-Feb-2024 9:58am CST
Clear
Clear
 Wind from S
Wind: S 8 mph , 13 km/h
Temperature: 70°F , 21°C
Dew Point: 45°F , 7°C
Humidity: 40%
Barometer: 30.20 inHg , 1022.7 hPa
Clouds: Clear
Visibility: 10 miles , 16 km
2024/02/26 15:58 K0J4 261558Z AUTO 17007KT 10SM CLR 21/07 A3020 RMK AO2 SLP223 T02060067
KOZR - Ozark/Cairns Aaf, Alabama, USA
Distance from station: SE 49mi, 78km
Updated: Mon, 26-Feb-2024 9:55am CST
Clear
Clear
 Wind from SSE
Wind: SSE 6 mph , 9 km/h
Temperature: 68°F , 20°C
Dew Point: 41°F , 5°C
Humidity: 38%
Barometer: 30.17 inHg , 1021.7 hPa
Clouds: Clear
Visibility: 10 miles , 16 km
2024/02/26 15:55 KOZR 261555Z AUTO 16005KT 10SM CLR 20/05 A3017 RMK AO2 SLP218 T01970046 PNO $
 
KHEY - Ft Rucker/Hanche, Alabama, USA
Distance from station: ESE 49mi, 79km
Updated: Mon, 26-Feb-2024 9:55am CST
Clear
Clear
 Wind from S
Wind: S 7 mph , 11 km/h
Temperature: 68°F , 20°C
Dew Point: 59°F , 15°C
Humidity: 73%
Barometer: 30.15 inHg , 1021 hPa
Clouds: Clear
Visibility: 10 miles , 16 km
2024/02/26 15:55 KHEY 261555Z AUTO 17006KT 10SM CLR 20/15 A3015 RMK AO2 SLP212 T01980150
KDHN - Dothan, Alabama, USA
Distance from station: ESE 61mi, 97km
Updated: Mon, 26-Feb-2024 9:53am CST
Clear
Clear
 Wind from SSE
Wind: SSE 10 mph , 17 km/h
Temperature: 68°F , 20°C
Dew Point: 41°F , 5°C
Humidity: 38%
Barometer: 30.22 inHg , 1023.4 hPa
Clouds: Clear
Visibility: 10 miles , 16 km
2024/02/26 15:53 KDHN 261553Z 15009KT 10SM CLR 20/05 A3022 RMK AO2 SLP231 T02000050
KCEW - Crestview, Florida, USA
Distance from station: S 66mi, 107km
Updated: Mon, 26-Feb-2024 8:53am CST
NOT Current
Clear
Clear
 Wind from SSE
Wind: SSE 5 mph , 7 km/h
Temperature: 63°F , 17°C
Dew Point: 52°F , 11°C
Humidity: 68%
Barometer: 30.20 inHg , 1022.7 hPa
Clouds: Clear
Visibility: 10 miles , 16 km
2024/02/26 14:53 KCEW 261453Z AUTO 16004KT 10SM CLR 17/11 A3020 RMK AO2 SLP224 T01720106 50012
 
KEUF - Eufaula, Alabama, USA
Distance from station: ENE 73mi, 118km
Updated: Mon, 26-Feb-2024 9:58am CST
Clear
Clear
 Wind from SSE
Wind: SSE 8 mph , 13 km/h
Temperature: 66°F , 19°C
Dew Point: 36°F , 2°C
Humidity: 32%
Barometer: 30.20 inHg , 1022.7 hPa
Clouds: Clear
Visibility: 10 miles , 16 km
2024/02/26 15:58 KEUF 261558Z AUTO 16007KT 10SM CLR 19/02 A3020 RMK AO2 SLP224 I1000 T01940022
KJKA - Gulf Shores, Alabama, USA
Distance from station: SSW 132mi, 212km
Updated: Mon, 26-Feb-2024 9:56am CST
Clear
Clear
 Wind from SSE
Wind: SSE 10 mph , 17 km/h
Temperature: 72°F , 22°C
Dew Point: 57°F , 14°C
Humidity: 61%
Barometer: 30.17 inHg , 1021.7 hPa
Clouds: Clear
Visibility: 10 miles , 16 km
2024/02/26 15:56 KJKA 261556Z 16009KT 10SM CLR 22/14 A3017
KLSF - Ft Benning/Colum, Georgia, USA
Distance from station: SNE 89mi, 143km
Updated: Mon, 26-Feb-2024 9:55am CST
Clear
Clear
 Wind from S
Wind: S 8 mph , 13 km/h
Temperature: 66°F , 19°C
Dew Point: 36°F , 2°C
Humidity: 32%
Barometer: 30.16 inHg , 1021.3 hPa
Clouds: Clear
Visibility: 10 miles , 16 km
2024/02/26 15:55 KLSF 261555Z 18007KT 10SM CLR 19/02 A3016 RMK AO2A SLP218 T01900015 RVRNO $
 
KMOB - Mobile/Bates, Alabama, USA
Distance from station: SW 125mi, 202km
Updated: Mon, 26-Feb-2024 9:56am CST
Few Clouds
Few Clouds
 Wind from S
Wind: S 15 mph , 24 km/h, Gust: 23 mph , 37 km/h
Temperature: 73°F , 23°C
Dew Point: 55°F , 13°C
Humidity: 53%
Barometer: 30.15 inHg , 1021 hPa
Clouds: Few Clouds
Visibility: 10 miles , 16 km
Cloud details: Few Clouds 20000 ft
2024/02/26 15:56 KMOB 261556Z 18013G20KT 10SM FEW200 23/13 A3015 RMK AO2 SLP207 T02280128 $
KNMM - Meridian Nas, Mississippi, USA
Distance from station: WNW 151mi, 243km
Updated: Mon, 26-Feb-2024 9:56am CST
Few Clouds
Few Clouds
 Wind from SW
Wind: SW 12 mph , 19 km/h, Gust: 21 mph , 33 km/h
Temperature: 72°F , 22°C
Dew Point: 54°F , 12°C
Humidity: 53%
Barometer: 30.09 inHg , 1019 hPa
Clouds: Few Clouds
Visibility: 10 miles , 16 km
Cloud details: Few Clouds 3000 ft
Few Clouds 25000 ft
2024/02/26 15:56 KNMM 261556Z 22010G18KT 10SM FEW030 FEW250 22/12 A3009 RMK AO2 SLP199 T02170117 $
KQHY - Hurlbert (Ft Walton Bch), Florida, USA
Distance from station: S 94mi, 151km
Updated: Mon, 26-Feb-2024 9:55am CST
Clear
Clear
 Wind from calm
Wind: Calm
Temperature: 66°F , 19°C
Dew Point: 57°F , 14°C
Humidity: 73%
Barometer: 30.19 inHg , 1022.4 hPa
Clouds: Clear
Visibility: 10 miles , 16 km
2024/02/26 15:55 KQHY 261555Z AUTO 00000KT 10SM CLR 19/14 A3019 RMK AO2 SLP231 T01870138
 
KTCL - Tuscaloosa, Alabama, USA
Distance from station: NNW 129mi, 207km
Updated: Mon, 26-Feb-2024 9:53am CST
Overcast
Overcast
 Wind from S
Wind: S 12 mph , 19 km/h
Temperature: 64°F , 18°C
Dew Point: 48°F , 9°C
Humidity: 56%
Barometer: 30.12 inHg , 1020 hPa
Clouds: Overcast
Visibility: 10 miles , 16 km
Cloud details: Partly cloudy 3600 ft
Overcast 5000 ft
2024/02/26 15:53 KTCL 261553Z 17010KT 10SM SCT036 OVC050 18/09 A3012 RMK AO2 SLP196 T01830094
KECP - Panama City, Florida, USA
Distance from station: SSE 122mi, 196km
Updated: Mon, 26-Feb-2024 9:53am CST
Clear
Clear
 Wind from ESE
Wind: ESE 10 mph , 17 km/h
Temperature: 68°F , 20°C
Dew Point: 50°F , 10°C
Humidity: 53%
Barometer: 30.19 inHg , 1022.4 hPa
Clouds: Clear
Visibility: 10 miles , 16 km
2024/02/26 15:53 KECP 261553Z 12009KT 10SM CLR 20/10 A3019 RMK AO1 SLP235 T02000100
KCBM - Columbus Afb, Mississippi, USA
Distance from station: NW 175mi, 282km
Updated: Mon, 26-Feb-2024 9:55am CST
Clear
Clear
 Wind from S
Wind: S 8 mph , 13 km/h
Temperature: 66°F , 19°C
Dew Point: 50°F , 10°C
Humidity: 56%
Barometer: 30.02 inHg , 1016.6 hPa
Clouds: Clear
Visibility: 10 miles , 16 km
2024/02/26 15:55 KCBM 261555Z AUTO 19007KT 10SM CLR 19/10 A3002 RMK AO2 SLP167 T01890102 $
 
KBHM - Birmingham, Alabama, USA
Distance from station: N 132mi, 212km
Updated: Mon, 26-Feb-2024 9:53am CST
Few Clouds
Few Clouds
 Wind from SSW
Wind: SSW 14 mph , 22 km/h, Gust: 22 mph , 35 km/h
Temperature: 64°F , 18°C
Dew Point: 46°F , 8°C
Humidity: 52%
Barometer: 30.14 inHg , 1020.7 hPa
Clouds: Few Clouds
Visibility: 10 miles , 16 km
Cloud details: Few Clouds 4000 ft
Few Clouds 15000 ft
2024/02/26 15:53 KBHM 261553Z 20012G19KT 10SM FEW040 FEW150 18/08 A3014 RMK AO2 SLP202 T01830078
KAAF - Apalachicola, Florida, USA
Distance from station: SSE 156mi, 250km
Updated: Mon, 26-Feb-2024 9:53am CST
Clear
Clear
 Wind from ESE
Wind: ESE 10 mph , 17 km/h
Temperature: 66°F , 19°C
Dew Point: 55°F , 13°C
Humidity: 68%
Barometer: 30.22 inHg , 1023.4 hPa
Clouds: Clear
Visibility: 10 miles , 16 km
2024/02/26 15:53 KAAF 261553Z AUTO 12009KT 10SM CLR 19/13 A3022 RMK AO2 SLP233 T01940133
KATL - Atlanta, Georgia, USA
Distance from station: NE 177mi, 287km
Updated: Mon, 26-Feb-2024 9:52am CST
Few Clouds
Few Clouds
 Wind from SW
Wind: SW 10 mph , 17 km/h
Temperature: 63°F , 17°C
Dew Point: 39°F , 4°C
Humidity: 42%
Barometer: 30.16 inHg , 1021.3 hPa
Clouds: Few Clouds
Visibility: 10 miles , 16 km
Cloud details: Few Clouds 25000 ft
2024/02/26 15:52 KATL 261552Z 23009KT 10SM FEW250 17/04 A3016 RMK AO2 SLP212 T01720039 $
 
KGPT - Gulfport, Mississippi, USA
Distance from station: SW 192mi, 309km
Updated: Mon, 26-Feb-2024 9:53am CST
Clear
Clear
 Wind from S
Wind: S 9 mph , 15 km/h
Temperature: 70°F , 21°C
Dew Point: 55°F , 13°C
Humidity: 60%
Barometer: 30.13 inHg , 1020.3 hPa
Clouds: Clear
Visibility: 10 miles , 16 km
2024/02/26 15:53 KGPT 261553Z 17008KT 10SM CLR 21/13 A3013 RMK AO2 SLP201 T02110133
KNEW - New Orleans/Lake, Louisiana, USA
Distance from station: SW 255mi, 410km
Updated: Mon, 26-Feb-2024 9:53am CST
Clear
Clear
 Wind from S
Wind: S 15 mph , 24 km/h
Temperature: 73°F , 23°C
Dew Point: 61°F , 16°C
Humidity: 65%
Barometer: 30.12 inHg , 1020 hPa
Clouds: Clear
Visibility: 10 miles , 16 km
2024/02/26 15:53 KNEW 261553Z 19013KT 10SM CLR 23/16 A3012 RMK AO2 SLP191 T02330161
KP92 - Salt Point, Louisiana, USA
Distance from station: SW 347mi, 559km
Updated: Mon, 26-Feb-2024 9:59am CST

 Wind from varies
Wind: varies 6 mph , 9 km/h
Temperature: 70°F , 21°C
Dew Point: 63°F , 17°C
Humidity: 78%
Barometer: 30.09 inHg , 1019 hPa
2024/02/26 15:59 KP92 261559Z AUTO VRB05KT 21/17 A3009 RMK AO1 SLP189 T02060167